Share

Bangkok (Don Mueang), Thailand

12:01 PM ICT on April 24, 2014 (GMT +0700)
Khu Khot (IPATHUMT2) Elev 15 ft | 13.96 °N, 100.65 °E | Change Station

Current weather conditions updated 60 seconds ago

Mostly Cloudy
Mostly Cloudy
102.0 °F
Feels Like 125 °F
N
6.3
Wind Variable Wind from SSE
Gusts 6.3 mph
Sunrise 5:59 AM
Sunset 6:32 PM
Moon Waning Crescent

Today is forecast to be Cooler than yesterday.

Pressure 29.80 in
Visibility 6.2 miles
Clouds Few 2000 ft
Scattered Clouds 3500 ft
Mostly Cloudy 30000 ft
Heat Index 125 °F
Dew Point 80 °F
Humidity 51%
Rainfall 0.00 in
Snow Depth Not available.
UV 10 out of 16
Pollen Not available.
Air Quality Not available.
Flu Activity Not available.
METAR VTBD 240430Z 20010KT 160V230 9999 FEW020 SCT035 BKN300 35/26 Q1009 NOSIG

More Conditions Fewer Conditions

Pressure 29.80 in
Visibility 6.2 miles
Clouds Few 2000 ft
Scattered Clouds 3500 ft
Mostly Cloudy 30000 ft
Heat Index 125 °F
Dew Point 80 °F
Humidity 51%
Rainfall 0.00 in
Snow Depth Not available.
UV 10 out of 16
Pollen Not available.
Air Quality Not available.
Flu Activity Not available.
METAR VTBD 240430Z 20010KT 160V230 9999 FEW020 SCT035 BKN300 35/26 Q1009 NOSIG

More Conditions Fewer Conditions

10-Day Weather Forecast

Almanac

Astronomy

Apr. 24, 2014 Rise Set
Actual Time 5:59 AM ICT 6:32 PM ICT
Civil Twilight 5:37 AM ICT 6:54 PM ICT
Nautical Twilight 5:11 AM ICT 7:19 PM ICT
Astronomical Twilight 4:45 AM ICT 7:45 PM ICT
Moon 1:55 AM ICT 2:03 PM ICT
Length of Visible Light 13h 16m
Length of Day
12h 32m
Tomorrow will be 0m 43s longer.
Waning Crescent, 29% of the Moon is Illuminated
Today
Waning Crescent
Apr 29
New
May 6
First Quarter
May 14
Full
May 21
Last Quarter

Yesterday's Extremes

Country Highs Country Lows

Community

  • Stacked
    Stacked
  • Balance
    Balance
  • Nestled In
    Nestled In
  • Stunning Sunrise
    Stunning Sunrise
  • spring flowers
    spring flowers

WunderPhotos

Upload Photos

1,704,563 photos uploaded!

WunderBlogs® & News

Nearby

Snow Depth

Not available.

Coastal Water Temperatures

Place Temperature
No Stations Reporting

Earthquake Activity

City Distance Mag. Time & Date
No recent earthquake activity has been reported nearby.
Minimum magnitude displayed is 2.5.

Nearby Weather Stations

Station Location Temp. Heat Index Dew Point Humidity Wind Precip. Elev Updated Type
Khu Khot, Pathum Thani 102.0 °F 125 °F 80 °F 51% SSE  at  6.3 mph 0.00 in / hr 15 ft 12:00 PM ICT Rapid Fire
Patumwan Demonstration School, Bangkok 91.8 °F 110 °F 80 °F 68% SW  at  8.0 mph 0.00 in / hr 46 ft 11:58 AM ICT Normal
Dokmai, Pravet, Bangkok 93.6 °F 107 °F 76 °F 57% SW  at  8.0 mph 0.00 in / hr 10 ft 12:01 PM ICT Rapid Fire

Show More Stations Show Fewer Stations

What do you think?

We're not finished. Please let us know what you like, what you don't like, and what you are still missing.